createdAt,value
2023-03-03T00:03:50.899Z,5.32
2023-03-03T00:08:53.871Z,6.40
2023-03-03T00:13:57.202Z,5.32
2023-03-03T00:19:00.329Z,4.37
2023-03-03T00:24:38.837Z,4.70
2023-03-03T00:29:48.520Z,3.15
2023-03-03T00:34:53.120Z,5.03
2023-03-03T00:40:14.130Z,4.35
2023-03-03T00:45:52.708Z,4.73
2023-03-03T00:51:00.264Z,4.50
2023-03-03T00:56:03.239Z,5.63
2023-03-03T01:01:05.910Z,6.80
2023-03-03T01:06:19.444Z,5.00
2023-03-03T01:11:25.246Z,3.00
2023-03-03T01:16:27.918Z,4.20
2023-03-03T01:21:33.636Z,2.95
2023-03-03T01:26:36.131Z,4.77
2023-03-03T01:31:38.781Z,5.65
2023-03-03T01:36:41.293Z,5.30
2023-03-03T01:41:43.938Z,4.53
2023-03-03T01:46:57.649Z,4.60
2023-03-03T01:52:10.509Z,6.17
2023-03-03T01:57:22.073Z,4.75
2023-03-03T02:02:27.512Z,6.57
2023-03-03T02:07:31.830Z,5.90
2023-03-03T02:12:41.094Z,5.03
2023-03-03T02:18:09.831Z,5.63
2023-03-03T02:23:22.540Z,7.25
2023-03-03T02:28:30.019Z,8.10
2023-03-03T02:33:34.013Z,5.75
2023-03-03T02:38:51.340Z,4.57
2023-03-03T02:44:08.376Z,6.10
2023-03-03T02:49:16.119Z,5.53
2023-03-03T02:54:20.924Z,4.83
2023-03-03T02:59:23.582Z,5.10
2023-03-03T03:04:28.023Z,4.85
2023-03-03T03:09:31.368Z,4.57
2023-03-03T03:14:35.679Z,6.15
2023-03-03T03:19:40.257Z,3.57
2023-03-03T03:24:46.603Z,4.38
2023-03-03T03:29:49.598Z,4.78
2023-03-03T03:34:53.584Z,6.67
2023-03-03T03:39:56.669Z,4.40
2023-03-03T03:45:00.498Z,5.10
2023-03-03T03:50:03.216Z,4.88
2023-03-03T03:55:06.546Z,4.95
2023-03-03T04:00:12.112Z,5.13
2023-03-03T04:05:24.766Z,4.57
2023-03-03T04:10:27.755Z,5.07
2023-03-03T04:15:30.557Z,5.03
2023-03-03T04:20:34.621Z,6.25
2023-03-03T04:25:38.023Z,4.57
2023-03-03T04:30:48.255Z,3.30
2023-03-03T04:35:53.343Z,4.33
2023-03-03T04:40:57.749Z,7.40
2023-03-03T04:46:03.352Z,6.22
2023-03-03T04:51:06.993Z,10.67
2023-03-03T04:56:11.738Z,3.42
2023-03-03T05:01:17.621Z,6.03
2023-03-03T05:06:20.644Z,8.70
2023-03-03T05:11:23.139Z,4.60
2023-03-03T05:16:25.727Z,6.40
2023-03-03T05:21:28.452Z,9.68
2023-03-03T05:26:30.958Z,4.93
2023-03-03T05:31:36.849Z,4.78
2023-03-03T05:36:40.890Z,8.38
2023-03-03T05:41:48.431Z,6.30
2023-03-03T05:46:51.778Z,5.80
2023-03-03T05:51:55.539Z,8.07
2023-03-03T05:56:59.340Z,5.45
2023-03-03T06:02:03.488Z,8.25
2023-03-03T06:07:09.565Z,4.00
2023-03-03T06:12:13.577Z,6.07
2023-03-03T06:17:20.441Z,6.40
2023-03-03T06:22:24.161Z,4.72
2023-03-03T06:27:27.746Z,5.85
2023-03-03T06:32:30.789Z,11.27
2023-03-03T06:37:33.396Z,5.75
2023-03-03T06:42:35.874Z,5.90
2023-03-03T06:47:39.138Z,6.28
2023-03-03T06:52:41.557Z,6.30
2023-03-03T06:57:46.476Z,8.83
2023-03-03T07:02:58.410Z,5.75
2023-03-03T07:08:01.004Z,9.23
2023-03-03T07:13:18.505Z,8.30
2023-03-03T07:18:44.775Z,6.93
2023-03-03T07:23:50.171Z,29.77
2023-03-03T07:28:55.906Z,9.68
2023-03-03T07:34:00.805Z,7.50
2023-03-03T07:39:26.551Z,5.68
2023-03-03T07:44:40.195Z,8.75
2023-03-03T07:49:43.512Z,10.00
2023-03-03T07:54:48.752Z,9.57
2023-03-03T07:59:53.716Z,9.00
2023-03-03T08:04:56.453Z,8.02
2023-03-03T08:10:01.069Z,8.30
2023-03-03T08:15:25.440Z,9.27
2023-03-03T08:21:05.164Z,10.75
2023-03-03T08:26:08.061Z,10.20
2023-03-03T08:31:20.292Z,9.13
2023-03-03T08:36:33.057Z,11.40
2023-03-03T08:41:37.586Z,12.70
2023-03-03T08:46:40.897Z,11.88
2023-03-03T08:51:43.947Z,9.90
2023-03-03T08:56:48.128Z,11.07
2023-03-03T09:01:51.714Z,9.73
2023-03-03T09:06:54.689Z,11.57
2023-03-03T09:12:07.576Z,13.52
2023-03-03T09:17:26.412Z,11.07
2023-03-03T09:22:29.693Z,11.38
2023-03-03T09:27:36.256Z,15.43
2023-03-03T09:32:57.903Z,14.00
2023-03-03T09:38:05.167Z,13.07
2023-03-03T09:43:31.610Z,13.00
2023-03-03T09:48:37.311Z,10.77
2023-03-03T09:54:02.532Z,14.85
2023-03-03T09:59:28.676Z,10.70
2023-03-03T10:05:04.194Z,20.52
2023-03-03T10:10:30.247Z,15.77
2023-03-03T10:15:33.028Z,11.25
2023-03-03T10:20:51.137Z,14.43
2023-03-03T10:26:38.168Z,13.20
2023-03-03T10:32:22.187Z,12.30
2023-03-03T10:37:46.780Z,14.13
2023-03-03T10:42:58.567Z,14.00
2023-03-03T10:48:50.974Z,11.80
2023-03-03T10:54:15.266Z,12.37
2023-03-03T10:59:32.977Z,14.07
2023-03-03T11:05:03.244Z,10.55
2023-03-03T11:10:49.004Z,11.03
2023-03-03T11:16:06.864Z,15.77
2023-03-03T11:21:09.416Z,9.87
2023-03-03T11:26:45.186Z,12.23
2023-03-03T11:32:11.453Z,8.68
2023-03-03T11:37:22.799Z,14.70
2023-03-03T11:43:02.230Z,9.98
2023-03-03T11:48:36.448Z,9.67
2023-03-03T11:53:54.371Z,9.38
2023-03-03T11:59:14.313Z,11.68
2023-03-03T12:04:31.161Z,9.30
2023-03-03T12:09:46.458Z,11.13
2023-03-03T12:15:03.612Z,13.13
2023-03-03T12:20:13.406Z,12.05
2023-03-03T12:25:29.720Z,11.23
2023-03-03T12:30:35.066Z,15.37
2023-03-03T12:35:51.628Z,12.38
2023-03-03T12:41:12.802Z,12.17
2023-03-03T12:46:36.417Z,11.65
2023-03-03T12:51:59.125Z,10.07
2023-03-03T12:57:40.746Z,10.73
2023-03-03T13:03:06.096Z,13.80
2023-03-03T13:08:53.040Z,14.17
2023-03-03T13:14:17.542Z,13.65
2023-03-03T13:19:30.933Z,14.93
2023-03-03T13:25:04.551Z,10.00
2023-03-03T13:30:39.485Z,13.60
2023-03-03T13:35:57.214Z,12.93
2023-03-03T13:41:24.553Z,10.70
2023-03-03T13:46:55.873Z,13.20
2023-03-03T13:52:07.441Z,11.33
2023-03-03T13:57:30.971Z,12.30
2023-03-03T14:02:51.602Z,11.73
2023-03-03T14:08:02.890Z,10.27
2023-03-03T14:13:09.746Z,12.38
2023-03-03T14:18:34.784Z,10.17
2023-03-03T14:24:02.050Z,14.10
2023-03-03T14:29:24.787Z,12.80
2023-03-03T14:34:43.796Z,11.68
2023-03-03T14:39:51.850Z,13.00
2023-03-03T14:44:56.103Z,17.50
2023-03-03T14:50:03.828Z,11.20
2023-03-03T14:55:37.793Z,11.30
2023-03-03T15:00:40.364Z,12.38
2023-03-03T15:05:52.845Z,10.27
2023-03-03T15:10:55.467Z,15.17
2023-03-03T15:16:04.834Z,14.82
2023-03-03T15:21:16.380Z,14.03
2023-03-03T15:26:49.778Z,11.82
2023-03-03T15:32:24.620Z,10.32
2023-03-03T15:37:56.171Z,13.43
2023-03-03T15:43:16.645Z,16.63
2023-03-03T15:48:25.589Z,12.90
2023-03-03T15:54:01.534Z,13.65
2023-03-03T15:59:22.539Z,12.90
2023-03-03T16:04:41.428Z,15.30
2023-03-03T16:10:02.557Z,12.10
2023-03-03T16:15:20.583Z,14.53
2023-03-03T16:20:56.324Z,11.63
2023-03-03T16:26:03.544Z,12.55
2023-03-03T16:31:18.864Z,10.47
2023-03-03T16:36:31.291Z,12.07
2023-03-03T16:42:01.180Z,10.97
2023-03-03T16:47:37.049Z,15.18
2023-03-03T16:52:56.392Z,11.50
2023-03-03T16:58:26.406Z,12.90
2023-03-03T17:03:52.153Z,15.00
2023-03-03T17:09:23.381Z,13.50
2023-03-03T17:14:48.827Z,13.02
2023-03-03T17:20:05.624Z,15.27
2023-03-03T17:25:46.451Z,12.57
2023-03-03T17:30:54.792Z,10.52
2023-03-03T17:36:20.329Z,16.33
2023-03-03T17:41:46.088Z,10.00
2023-03-03T17:46:51.823Z,12.30
2023-03-03T17:52:26.877Z,10.63
2023-03-03T17:57:45.648Z,11.60
2023-03-03T18:03:32.270Z,8.90
2023-03-03T18:09:13.294Z,11.95
2023-03-03T18:14:35.479Z,10.93
2023-03-03T18:19:50.420Z,10.23
2023-03-03T18:24:52.937Z,9.75
2023-03-03T18:30:13.922Z,9.27
2023-03-03T18:35:34.320Z,9.73
2023-03-03T18:41:05.683Z,10.50
2023-03-03T18:46:31.282Z,12.30
2023-03-03T18:51:40.000Z,9.15
2023-03-03T18:56:53.071Z,14.73
2023-03-03T19:02:10.144Z,9.13
2023-03-03T19:07:27.087Z,12.50
2023-03-03T19:12:44.167Z,10.20
2023-03-03T19:17:51.192Z,9.38
2023-03-03T19:23:05.263Z,10.60
2023-03-03T19:28:17.933Z,10.13
2023-03-03T19:33:43.087Z,8.98
2023-03-03T19:38:48.087Z,8.27
2023-03-03T19:44:02.369Z,10.35
2023-03-03T19:49:11.944Z,13.57
2023-03-03T19:55:05.644Z,9.48
2023-03-03T20:00:23.502Z,8.07
2023-03-03T20:05:44.226Z,9.60
2023-03-03T20:11:07.978Z,9.50
2023-03-03T20:16:29.152Z,9.10
2023-03-03T20:21:33.621Z,8.30
2023-03-03T20:27:03.372Z,7.97
2023-03-03T20:32:30.727Z,12.00
2023-03-03T20:37:57.912Z,7.88
2023-03-03T20:43:28.701Z,8.80
2023-03-03T20:48:57.387Z,8.05
2023-03-03T20:54:12.069Z,8.90
2023-03-03T20:59:32.337Z,7.57
2023-03-03T21:04:36.510Z,7.93
2023-03-03T21:09:39.598Z,8.53
2023-03-03T21:14:42.546Z,8.00
2023-03-03T21:19:45.103Z,6.65
2023-03-03T21:30:17.821Z,10.30
2023-03-03T21:35:21.981Z,8.87
2023-03-03T21:40:30.124Z,9.30
2023-03-03T21:45:32.624Z,7.10
2023-03-03T21:50:36.365Z,8.80
2023-03-03T21:55:39.000Z,10.50
2023-03-03T22:00:43.195Z,9.80
2023-03-03T22:05:45.787Z,9.68
2023-03-03T22:10:51.802Z,9.60
2023-03-03T22:15:55.402Z,13.77
2023-03-03T22:20:58.102Z,10.88
2023-03-03T22:26:02.437Z,14.77
2023-03-03T22:31:05.047Z,8.57
2023-03-03T22:36:09.670Z,10.35
2023-03-03T22:41:12.793Z,9.00
2023-03-03T22:46:15.344Z,10.20
2023-03-03T22:51:18.664Z,10.50
2023-03-03T22:56:21.124Z,9.18
2023-03-03T23:01:23.654Z,9.73
2023-03-03T23:06:26.176Z,9.33
2023-03-03T23:11:28.871Z,9.75
2023-03-03T23:16:31.540Z,9.97
2023-03-03T23:21:40.027Z,15.60
2023-03-03T23:26:45.586Z,13.75
2023-03-03T23:31:48.153Z,13.80
2023-03-03T23:36:50.723Z,10.10
2023-03-03T23:41:53.185Z,10.80
2023-03-03T23:46:55.929Z,11.70
2023-03-03T23:51:58.480Z,10.57
2023-03-03T23:57:01.013Z,11.73
